createdAt,value
2022-08-14T14:58:16.083Z,19.33
2022-08-14T15:00:50.345Z,33.97
2022-08-14T15:03:19.616Z,39.83
2022-08-14T15:05:54.271Z,40.47
2022-08-14T15:08:26.746Z,37.13
2022-08-14T15:11:13.459Z,36.05
2022-08-14T15:13:53.010Z,32.13
2022-08-14T15:16:23.683Z,25.63
2022-08-14T15:18:54.415Z,26.77
2022-08-14T15:21:25.924Z,24.98
2022-08-14T15:23:59.669Z,22.38
2022-08-14T15:26:31.446Z,21.40
2022-08-14T15:29:08.245Z,20.95
2022-08-14T15:31:38.769Z,20.27
2022-08-14T15:34:43.216Z,26.00
2022-08-14T15:37:04.900Z,21.40
2022-08-14T15:39:38.488Z,23.77
2022-08-14T15:42:14.566Z,18.70
2022-08-14T15:44:57.985Z,21.00
2022-08-14T15:47:33.837Z,19.02
2022-08-14T15:50:09.979Z,21.77
2022-08-14T15:52:39.733Z,19.80
2022-08-14T15:55:14.826Z,19.63
2022-08-14T15:58:01.463Z,21.02
2022-08-14T16:00:49.230Z,23.80
2022-08-14T16:03:34.690Z,21.00
2022-08-14T16:06:17.714Z,26.20
2022-08-14T16:08:58.841Z,23.80
2022-08-14T16:11:50.563Z,22.95
2022-08-14T16:14:27.584Z,26.02
2022-08-14T16:17:00.623Z,25.77
2022-08-14T16:19:33.139Z,23.13
2022-08-14T16:22:58.063Z,22.85
2022-08-14T16:25:11.689Z,29.08
2022-08-14T16:27:47.797Z,22.98
2022-08-14T16:30:27.416Z,20.98
2022-08-14T16:33:01.965Z,21.38
2022-08-14T16:35:42.697Z,24.25
2022-08-14T16:38:46.062Z,23.15
2022-08-14T16:41:18.221Z,22.38
2022-08-14T16:43:59.336Z,18.50
2022-08-14T16:46:33.116Z,19.08
2022-08-14T16:49:06.891Z,18.45
2022-08-14T16:51:39.011Z,20.45
2022-08-14T16:54:21.051Z,19.67
2022-08-14T16:57:32.399Z,18.98
2022-08-14T17:00:28.143Z,21.13
2022-08-14T17:03:11.710Z,20.00
2022-08-14T17:05:47.102Z,24.70
2022-08-14T17:08:31.705Z,18.25
2022-08-14T17:11:12.413Z,20.45
2022-08-14T17:13:59.065Z,32.05
2022-08-14T17:19:13.555Z,30.90
2022-08-14T17:21:47.058Z,24.83
2022-08-14T17:24:57.086Z,25.58
2022-08-14T17:27:18.177Z,19.85
2022-08-14T17:29:56.129Z,21.70
2022-08-14T17:32:55.700Z,26.90
2022-08-14T17:35:58.016Z,28.30
2022-08-14T17:38:38.812Z,31.50
2022-08-14T17:41:36.140Z,23.08
2022-08-14T17:44:45.079Z,21.77
2022-08-14T17:47:18.488Z,25.05
2022-08-14T17:49:52.703Z,21.83
2022-08-14T17:52:34.767Z,31.10
2022-08-14T17:56:00.912Z,20.70
2022-08-14T17:58:20.323Z,15.80
2022-08-14T18:01:04.610Z,19.05
2022-08-14T18:03:50.695Z,16.48
2022-08-14T18:06:39.673Z,19.75
2022-08-14T18:09:25.405Z,16.17
2022-08-14T18:12:04.071Z,12.73
2022-08-14T18:14:48.625Z,14.77
2022-08-14T18:17:23.145Z,14.88
2022-08-14T18:19:55.343Z,12.82
2022-08-14T18:22:32.296Z,12.93
2022-08-14T18:25:19.090Z,15.65
2022-08-14T18:27:57.306Z,14.52
2022-08-14T18:30:31.972Z,17.05
2022-08-14T18:33:23.787Z,15.40
2022-08-14T18:35:59.050Z,14.73
2022-08-14T18:38:55.148Z,17.00
2022-08-14T18:41:36.353Z,16.83
2022-08-14T18:44:10.489Z,16.83
2022-08-14T18:47:32.661Z,18.75
2022-08-14T18:50:31.091Z,19.30
2022-08-14T18:53:12.535Z,16.63
2022-08-14T18:55:53.016Z,18.63
2022-08-14T18:58:31.122Z,17.77
2022-08-14T19:01:06.193Z,15.50
2022-08-14T19:03:55.734Z,15.63
2022-08-14T19:06:41.162Z,20.45
2022-08-14T19:09:42.387Z,20.00
2022-08-14T19:12:57.645Z,18.15
2022-08-14T19:15:37.743Z,17.10
2022-08-14T19:18:31.022Z,17.60
2022-08-14T19:21:32.696Z,18.40
2022-08-14T19:24:30.329Z,18.27
2022-08-14T19:30:26.117Z,17.15
2022-08-14T19:33:03.736Z,19.95
2022-08-14T19:36:00.366Z,20.95
2022-08-14T19:38:57.303Z,15.50
2022-08-14T19:41:38.910Z,20.50
2022-08-14T19:44:19.125Z,14.32
2022-08-14T19:47:00.466Z,13.73
2022-08-14T19:50:24.808Z,16.50
2022-08-14T19:52:40.016Z,15.82
2022-08-14T19:55:34.652Z,13.23
2022-08-14T19:58:09.131Z,13.73
2022-08-14T20:00:52.737Z,13.48
2022-08-14T20:03:23.360Z,15.40
2022-08-14T20:06:05.579Z,11.95
2022-08-14T20:11:01.258Z,13.05
2022-08-14T20:12:02.291Z,10.93
2022-08-14T20:14:31.725Z,11.45
2022-08-14T20:17:06.797Z,14.13
2022-08-14T20:19:41.507Z,14.65
2022-08-14T20:22:36.995Z,14.32
2022-08-14T20:25:17.764Z,12.50
2022-08-14T20:27:59.585Z,9.43
2022-08-14T20:30:34.918Z,15.07
2022-08-14T20:33:11.838Z,10.13
2022-08-14T20:35:52.563Z,11.52
2022-08-14T20:38:33.527Z,11.00
2022-08-14T20:41:12.986Z,14.80
2022-08-14T20:43:55.668Z,13.85
2022-08-14T20:46:38.744Z,12.18
2022-08-14T20:49:18.772Z,15.18
2022-08-14T20:51:59.488Z,26.88
2022-08-14T20:54:50.879Z,12.40
2022-08-14T20:57:21.628Z,13.77
2022-08-14T20:59:57.475Z,9.82
2022-08-14T21:02:50.813Z,13.70
2022-08-14T21:05:33.996Z,12.60
2022-08-14T21:08:07.846Z,13.90
2022-08-14T21:10:44.215Z,13.10
2022-08-14T21:14:08.944Z,12.52
2022-08-14T21:16:34.510Z,11.13
2022-08-14T21:19:02.026Z,13.13
2022-08-14T21:21:41.312Z,16.45
2022-08-14T21:24:38.431Z,13.98
2022-08-14T21:27:21.866Z,12.52
2022-08-14T21:29:55.803Z,11.40
2022-08-14T21:32:46.931Z,10.60
2022-08-14T21:35:23.063Z,17.13
2022-08-14T21:37:54.686Z,16.77
2022-08-14T21:40:41.697Z,18.50
2022-08-14T21:43:17.487Z,13.00
2022-08-14T21:45:54.130Z,18.45
2022-08-14T21:48:34.123Z,11.67
2022-08-14T21:51:53.209Z,14.50
2022-08-14T21:54:00.982Z,13.82
2022-08-14T21:56:41.898Z,8.98
2022-08-14T21:59:31.342Z,14.00
2022-08-14T22:02:07.507Z,9.98
2022-08-14T22:04:41.430Z,11.48
2022-08-14T22:07:18.085Z,11.48
2022-08-14T22:09:54.676Z,13.73
2022-08-14T22:12:58.719Z,18.70
2022-08-14T22:15:19.805Z,15.25
2022-08-14T22:17:54.448Z,19.77
2022-08-14T22:20:29.222Z,17.88
2022-08-14T22:23:03.266Z,18.30
2022-08-14T22:25:41.101Z,12.80
2022-08-14T22:28:19.137Z,18.33
2022-08-14T22:30:55.314Z,13.30
2022-08-14T22:33:30.837Z,17.10
2022-08-14T22:36:25.322Z,18.35
2022-08-14T22:38:56.877Z,16.92
2022-08-14T22:41:32.622Z,18.48
2022-08-14T22:44:13.275Z,18.15
2022-08-14T22:46:43.677Z,16.98
2022-08-14T22:50:31.884Z,16.98
2022-08-14T22:52:31.698Z,20.67
2022-08-14T22:55:01.690Z,20.20
2022-08-14T22:57:37.886Z,14.15
2022-08-14T23:00:25.293Z,15.30
2022-08-14T23:02:59.944Z,19.77
2022-08-14T23:05:38.816Z,16.13
2022-08-14T23:08:56.558Z,21.25
2022-08-14T23:11:03.170Z,15.52
2022-08-14T23:13:33.970Z,19.10
2022-08-14T23:16:03.898Z,17.55
2022-08-14T23:18:33.510Z,19.40
2022-08-14T23:21:02.876Z,18.63
2022-08-14T23:23:32.268Z,17.42
2022-08-14T23:26:48.352Z,15.95
2022-08-14T23:28:58.075Z,16.50
2022-08-14T23:31:35.585Z,21.38
2022-08-14T23:34:09.729Z,27.40
2022-08-14T23:36:54.342Z,16.95
2022-08-14T23:39:34.581Z,26.50
2022-08-14T23:42:17.851Z,31.33
2022-08-14T23:44:47.998Z,28.02
2022-08-14T23:47:26.681Z,24.85
2022-08-14T23:50:04.360Z,29.58
2022-08-14T23:52:50.784Z,43.65
2022-08-14T23:55:35.499Z,30.65
2022-08-14T23:58:29.786Z,32.95
